createdAt,value
2018-07-30T00:00:42.637Z,954.73
2018-07-30T00:01:42.633Z,954.71
2018-07-30T00:02:42.634Z,954.7
2018-07-30T00:03:42.632Z,954.69
2018-07-30T00:04:42.631Z,954.69
2018-07-30T00:05:42.631Z,954.67
2018-07-30T00:06:42.631Z,954.69
2018-07-30T00:07:42.631Z,954.68
2018-07-30T00:08:42.629Z,954.66
2018-07-30T00:09:42.629Z,954.69
2018-07-30T00:10:42.630Z,954.67
2018-07-30T00:11:42.629Z,954.7
2018-07-30T00:12:42.627Z,954.74
2018-07-30T00:13:42.626Z,954.73
2018-07-30T00:14:42.633Z,954.7
2018-07-30T00:15:42.626Z,954.73
2018-07-30T00:16:42.625Z,954.69
2018-07-30T00:17:42.624Z,954.73
2018-07-30T00:18:42.625Z,954.7
2018-07-30T00:19:42.623Z,954.75
2018-07-30T00:20:42.623Z,954.73
2018-07-30T00:21:42.622Z,954.72
2018-07-30T00:22:42.622Z,954.71
2018-07-30T00:23:42.620Z,954.71
2018-07-30T00:24:42.620Z,954.72
2018-07-30T00:25:42.620Z,954.68
2018-07-30T00:26:42.619Z,954.7
2018-07-30T00:27:42.618Z,954.71
2018-07-30T00:28:42.618Z,954.7
2018-07-30T00:29:42.618Z,954.69
2018-07-30T00:30:42.621Z,954.69
2018-07-30T00:31:42.617Z,954.71
2018-07-30T00:32:42.617Z,954.73
2018-07-30T00:33:42.616Z,954.72
2018-07-30T00:34:42.616Z,954.73
2018-07-30T00:35:42.614Z,954.68
2018-07-30T00:36:42.614Z,954.73
2018-07-30T00:37:42.613Z,954.75
2018-07-30T00:38:42.613Z,954.74
2018-07-30T00:39:42.612Z,954.78
2018-07-30T00:40:42.612Z,954.8
2018-07-30T00:41:42.611Z,954.86
2018-07-30T00:42:42.611Z,954.87
2018-07-30T00:43:42.611Z,954.91
2018-07-30T00:44:42.611Z,954.91
2018-07-30T00:45:42.615Z,954.94
2018-07-30T00:46:42.610Z,954.94
2018-07-30T00:47:42.609Z,954.92
2018-07-30T00:48:42.608Z,954.86
2018-07-30T00:49:42.613Z,954.87
2018-07-30T00:50:42.613Z,954.85
2018-07-30T00:51:42.612Z,954.85
2018-07-30T00:52:42.607Z,954.85
2018-07-30T00:53:42.606Z,954.86
2018-07-30T00:54:42.607Z,954.87
2018-07-30T00:55:42.606Z,954.9
2018-07-30T00:56:42.612Z,954.91
2018-07-30T00:57:42.605Z,954.92
2018-07-30T00:58:42.605Z,954.92
2018-07-30T00:59:42.603Z,954.91
2018-07-30T01:00:42.605Z,954.9
2018-07-30T01:01:42.604Z,954.91
2018-07-30T01:02:42.604Z,954.94
2018-07-30T01:03:42.603Z,954.93
2018-07-30T01:04:42.601Z,954.92
2018-07-30T01:05:42.601Z,954.91
2018-07-30T01:06:42.601Z,954.94
2018-07-30T01:07:42.675Z,954.93
2018-07-30T01:08:42.602Z,954.91
2018-07-30T01:09:42.601Z,954.93
2018-07-30T01:10:42.599Z,954.9
2018-07-30T01:11:42.599Z,954.91
2018-07-30T01:12:42.599Z,954.9
2018-07-30T01:13:42.598Z,954.93
2018-07-30T01:14:42.597Z,954.87
2018-07-30T01:15:42.597Z,954.89
2018-07-30T01:16:42.596Z,954.84
2018-07-30T01:17:42.595Z,954.91
2018-07-30T01:18:42.596Z,954.86
2018-07-30T01:19:42.595Z,954.88
2018-07-30T01:20:42.595Z,954.83
2018-07-30T01:21:42.649Z,954.86
2018-07-30T01:22:42.593Z,954.85
2018-07-30T01:23:42.597Z,954.83
2018-07-30T01:24:42.592Z,954.85
2018-07-30T01:25:42.590Z,954.83
2018-07-30T01:26:42.592Z,954.88
2018-07-30T01:27:42.590Z,954.91
2018-07-30T01:28:42.589Z,954.9
2018-07-30T01:29:42.589Z,954.9
2018-07-30T01:30:42.590Z,954.91
2018-07-30T01:31:42.587Z,954.89
2018-07-30T01:32:42.586Z,954.92
2018-07-30T01:33:42.587Z,954.9
2018-07-30T01:34:42.585Z,954.89
2018-07-30T01:35:42.585Z,954.94
2018-07-30T01:36:42.584Z,954.93
2018-07-30T01:37:42.584Z,954.92
2018-07-30T01:38:42.582Z,954.92
2018-07-30T01:39:42.581Z,954.87
2018-07-30T01:40:42.584Z,954.9
2018-07-30T01:41:42.580Z,954.91
2018-07-30T01:42:42.580Z,954.87
2018-07-30T01:43:42.578Z,954.91
2018-07-30T01:44:42.578Z,954.9
2018-07-30T01:45:42.577Z,954.91
2018-07-30T01:46:42.576Z,954.9
2018-07-30T01:47:42.574Z,954.89
2018-07-30T01:48:42.574Z,954.87
2018-07-30T01:49:42.575Z,954.86
2018-07-30T01:50:42.573Z,954.87
2018-07-30T01:51:42.572Z,954.86
2018-07-30T01:52:42.573Z,954.88
2018-07-30T01:53:42.571Z,954.83
2018-07-30T01:54:42.570Z,954.85
2018-07-30T01:55:42.572Z,954.85
2018-07-30T01:56:42.568Z,954.85
2018-07-30T01:57:42.568Z,954.84
2018-07-30T01:58:42.566Z,954.84
2018-07-30T01:59:42.566Z,954.84
2018-07-30T02:00:42.566Z,954.85
2018-07-30T02:01:42.565Z,954.83
2018-07-30T02:02:42.563Z,954.86
2018-07-30T02:03:42.564Z,954.86
2018-07-30T02:04:42.563Z,954.85
2018-07-30T02:05:42.561Z,954.83
2018-07-30T02:06:42.561Z,954.83
2018-07-30T02:07:42.560Z,954.86
2018-07-30T02:08:42.561Z,954.84
2018-07-30T02:09:42.558Z,954.87
2018-07-30T02:10:42.560Z,954.88
2018-07-30T02:11:42.558Z,954.89
2018-07-30T02:12:42.554Z,954.89
2018-07-30T02:13:42.556Z,954.9
2018-07-30T02:14:42.556Z,954.87
2018-07-30T02:15:42.562Z,954.9
2018-07-30T02:16:42.554Z,954.85
2018-07-30T02:17:42.552Z,954.88
2018-07-30T02:18:42.553Z,954.87
2018-07-30T02:19:42.551Z,954.88
2018-07-30T02:20:42.550Z,954.86
2018-07-30T02:21:42.551Z,954.87
2018-07-30T02:22:42.548Z,954.87
2018-07-30T02:23:42.547Z,954.88
2018-07-30T02:24:42.547Z,954.88
2018-07-30T02:25:42.547Z,954.87
2018-07-30T02:26:42.547Z,954.9
2018-07-30T02:27:42.543Z,954.89
2018-07-30T02:28:42.544Z,954.88
2018-07-30T02:29:42.543Z,954.91
2018-07-30T02:30:42.548Z,954.89
2018-07-30T02:31:42.543Z,954.89
2018-07-30T02:32:42.541Z,954.86
2018-07-30T02:33:42.541Z,954.84
2018-07-30T02:34:42.539Z,954.89
2018-07-30T02:35:42.538Z,954.85
2018-07-30T02:36:42.539Z,954.85
2018-07-30T02:37:42.539Z,954.83
2018-07-30T02:38:42.539Z,954.85
2018-07-30T02:39:42.537Z,954.84
2018-07-30T02:40:42.536Z,954.84
2018-07-30T02:41:42.539Z,954.86
2018-07-30T02:42:42.536Z,954.87
2018-07-30T02:43:42.534Z,954.88
2018-07-30T02:44:42.667Z,954.86
2018-07-30T02:45:42.532Z,954.88
2018-07-30T02:46:42.532Z,954.89
2018-07-30T02:47:42.530Z,954.91
2018-07-30T02:48:42.532Z,954.88
2018-07-30T02:49:42.530Z,954.91
2018-07-30T02:50:42.529Z,954.91
2018-07-30T02:51:42.555Z,954.96
2018-07-30T02:52:42.527Z,954.93
2018-07-30T02:53:42.529Z,954.95
2018-07-30T02:54:42.526Z,954.97
2018-07-30T02:55:42.532Z,954.95
2018-07-30T02:56:42.524Z,954.93
2018-07-30T02:57:42.626Z,954.92
2018-07-30T02:58:42.523Z,954.95
2018-07-30T02:59:42.524Z,954.92
2018-07-30T03:00:42.520Z,954.93
2018-07-30T03:01:42.521Z,954.98
2018-07-30T03:02:42.521Z,954.98
2018-07-30T03:03:42.519Z,954.95
2018-07-30T03:04:42.518Z,954.96
2018-07-30T03:05:42.518Z,955.01
2018-07-30T03:06:42.518Z,954.98
2018-07-30T03:07:42.519Z,954.96
2018-07-30T03:08:42.516Z,954.98
2018-07-30T03:09:42.516Z,955
2018-07-30T03:10:42.514Z,954.98
2018-07-30T03:11:42.513Z,955.02
2018-07-30T03:12:42.514Z,955
2018-07-30T03:13:42.512Z,954.99
2018-07-30T03:14:42.510Z,954.97
2018-07-30T03:15:42.512Z,955
2018-07-30T03:16:42.510Z,955.02
2018-07-30T03:17:42.509Z,955.02
2018-07-30T03:18:42.509Z,954.97
2018-07-30T03:19:42.508Z,955
2018-07-30T03:20:42.506Z,954.97
2018-07-30T03:21:42.507Z,955
2018-07-30T03:22:42.504Z,955.03
2018-07-30T03:23:42.504Z,954.99
2018-07-30T03:24:42.504Z,955.03
2018-07-30T03:25:42.502Z,955.05
2018-07-30T03:26:42.502Z,955.01
2018-07-30T03:27:42.502Z,955.02
2018-07-30T03:28:42.509Z,955.03
2018-07-30T03:29:42.501Z,954.99
2018-07-30T03:30:42.498Z,955.03
2018-07-30T03:31:42.499Z,955.03
2018-07-30T03:32:42.498Z,955.02
2018-07-30T03:33:42.496Z,955.03
2018-07-30T03:34:42.496Z,955.02
2018-07-30T03:35:42.496Z,955.01
2018-07-30T03:36:42.493Z,955.04
2018-07-30T03:37:42.493Z,955.03
2018-07-30T03:38:42.492Z,955.03
2018-07-30T03:39:42.491Z,955.04
2018-07-30T03:40:42.490Z,955.05
2018-07-30T03:41:42.492Z,955.04
2018-07-30T03:42:42.489Z,955.04
2018-07-30T03:43:42.489Z,955.05
2018-07-30T03:44:42.487Z,955.02
2018-07-30T03:45:42.486Z,955
2018-07-30T03:46:42.486Z,955.03
2018-07-30T03:47:42.484Z,955.05
2018-07-30T03:48:42.484Z,955.04
2018-07-30T03:49:42.483Z,955.04
2018-07-30T03:50:42.482Z,955.05
2018-07-30T03:51:42.481Z,955.08
2018-07-30T03:52:42.479Z,955.1
2018-07-30T03:53:42.480Z,955.06
2018-07-30T03:54:42.516Z,955.06
2018-07-30T03:55:42.477Z,955.06
2018-07-30T03:56:42.479Z,955.07
2018-07-30T03:57:42.476Z,955.1
2018-07-30T03:58:42.475Z,955.1
2018-07-30T03:59:42.473Z,955.11
2018-07-30T04:00:42.473Z,955.09
2018-07-30T04:01:42.472Z,955.1
2018-07-30T04:02:42.471Z,955.09
2018-07-30T04:03:42.469Z,955.1
2018-07-30T04:04:42.468Z,955.11
2018-07-30T04:05:42.500Z,955.1
2018-07-30T04:06:42.468Z,955.11
2018-07-30T04:07:42.465Z,955.12
2018-07-30T04:08:42.467Z,955.14
2018-07-30T04:09:42.463Z,955.1
2018-07-30T04:10:42.462Z,955.13
2018-07-30T04:11:42.461Z,955.16
2018-07-30T04:12:42.481Z,955.12
2018-07-30T04:13:42.458Z,955.13
2018-07-30T04:14:42.457Z,955.13
2018-07-30T04:15:42.457Z,955.13
2018-07-30T04:16:42.455Z,955.12
2018-07-30T04:17:42.454Z,955.1
2018-07-30T04:18:42.453Z,955.14
2018-07-30T04:19:42.453Z,955.12
2018-07-30T04:20:42.451Z,955.09
2018-07-30T04:21:42.450Z,955.09
2018-07-30T04:22:42.451Z,955.09
2018-07-30T04:23:42.447Z,955.1
2018-07-30T04:24:42.447Z,955.07
2018-07-30T04:25:42.445Z,955.06
2018-07-30T04:26:42.443Z,955.06
2018-07-30T04:27:42.443Z,955.08
2018-07-30T04:28:42.441Z,955.03
2018-07-30T04:29:42.440Z,955.08
2018-07-30T04:30:42.447Z,955.07
2018-07-30T04:31:42.437Z,955.06
2018-07-30T04:32:42.435Z,955.02
2018-07-30T04:33:42.434Z,955.01
2018-07-30T04:34:42.435Z,955.07
2018-07-30T04:35:42.431Z,955.11
2018-07-30T04:36:42.431Z,955.08
2018-07-30T04:37:42.429Z,955.09
2018-07-30T04:38:42.427Z,955.11
2018-07-30T04:39:42.426Z,955.06
2018-07-30T04:40:42.430Z,955.09
2018-07-30T04:41:42.425Z,955.1
2018-07-30T04:42:42.425Z,955.11
2018-07-30T04:43:42.474Z,955.15
2018-07-30T04:44:42.419Z,955.18
2018-07-30T04:45:42.419Z,955.16
2018-07-30T04:46:42.417Z,955.18
2018-07-30T04:47:42.415Z,955.16
2018-07-30T04:48:42.416Z,955.11
2018-07-30T04:49:42.412Z,955.14
2018-07-30T04:50:42.410Z,955.17
2018-07-30T04:51:42.410Z,955.15
2018-07-30T04:52:42.408Z,955.16
2018-07-30T04:53:42.406Z,955.18
2018-07-30T04:54:42.406Z,955.19
2018-07-30T04:55:42.407Z,955.18
2018-07-30T04:56:42.403Z,955.18
2018-07-30T04:57:42.402Z,955.14
2018-07-30T04:58:42.401Z,955.15
2018-07-30T04:59:42.399Z,955.14
2018-07-30T05:00:42.397Z,955.17
2018-07-30T05:01:42.399Z,955.17
2018-07-30T05:02:42.396Z,955.2
2018-07-30T05:03:42.398Z,955.19
2018-07-30T05:04:42.392Z,955.21
2018-07-30T05:05:42.394Z,955.16
2018-07-30T05:06:42.391Z,955.21
2018-07-30T05:07:42.389Z,955.17
2018-07-30T05:08:42.387Z,955.18
2018-07-30T05:09:42.385Z,955.2
2018-07-30T05:10:42.385Z,955.14
2018-07-30T05:11:42.383Z,955.19
2018-07-30T05:12:42.384Z,955.18
2018-07-30T05:13:42.381Z,955.2
2018-07-30T05:14:42.380Z,955.25
2018-07-30T05:15:42.378Z,955.22
2018-07-30T05:16:42.377Z,955.21
2018-07-30T05:17:42.377Z,955.22
2018-07-30T05:18:42.375Z,955.23
2018-07-30T05:19:42.374Z,955.27
2018-07-30T05:20:42.373Z,955.26
2018-07-30T05:21:42.372Z,955.26
2018-07-30T05:22:42.370Z,955.31
2018-07-30T05:23:42.369Z,955.31
2018-07-30T05:24:42.370Z,955.37
2018-07-30T05:25:42.368Z,955.33
2018-07-30T05:26:42.366Z,955.41
2018-07-30T05:27:42.366Z,955.37
2018-07-30T05:28:42.367Z,955.41
2018-07-30T05:29:42.364Z,955.4
2018-07-30T05:30:42.363Z,955.41
2018-07-30T05:31:42.423Z,955.41
2018-07-30T05:32:42.362Z,955.4
2018-07-30T05:33:42.360Z,955.41
2018-07-30T05:34:42.359Z,955.41
2018-07-30T05:35:42.359Z,955.41
2018-07-30T05:36:42.358Z,955.44
2018-07-30T05:37:42.356Z,955.41
2018-07-30T05:38:42.357Z,955.43
2018-07-30T05:39:42.357Z,955.43
2018-07-30T05:40:42.355Z,955.46
2018-07-30T05:41:42.355Z,955.46
2018-07-30T05:42:42.359Z,955.49
2018-07-30T05:43:42.354Z,955.48
2018-07-30T05:44:42.351Z,955.51
2018-07-30T05:45:42.351Z,955.51
2018-07-30T05:46:42.352Z,955.5
2018-07-30T05:47:42.354Z,955.46
2018-07-30T05:48:42.350Z,955.49
2018-07-30T05:49:42.350Z,955.47
2018-07-30T05:50:42.350Z,955.58
2018-07-30T05:51:42.354Z,955.53
2018-07-30T05:52:42.352Z,955.55
2018-07-30T05:53:42.349Z,955.56
2018-07-30T05:54:42.349Z,955.52
2018-07-30T05:55:42.349Z,955.58
2018-07-30T05:56:42.348Z,955.54
2018-07-30T05:57:42.348Z,955.55
2018-07-30T05:58:42.349Z,955.55
2018-07-30T05:59:42.379Z,955.55
2018-07-30T06:00:42.348Z,955.6
2018-07-30T06:01:42.350Z,955.62
2018-07-30T06:02:42.348Z,955.57
2018-07-30T06:03:42.347Z,955.54
2018-07-30T06:04:42.347Z,955.56
2018-07-30T06:05:42.347Z,955.57
2018-07-30T06:06:42.350Z,955.59
2018-07-30T06:07:42.347Z,955.56
2018-07-30T06:08:42.348Z,955.58
2018-07-30T06:09:42.441Z,955.6
2018-07-30T06:10:42.346Z,955.59
2018-07-30T06:11:42.347Z,955.61
2018-07-30T06:12:42.349Z,955.63
2018-07-30T06:13:42.347Z,955.62
2018-07-30T06:14:42.347Z,955.61
2018-07-30T06:15:42.349Z,955.63
2018-07-30T06:16:42.350Z,955.65
2018-07-30T06:17:42.348Z,955.64
2018-07-30T06:18:42.348Z,955.66
2018-07-30T06:19:42.356Z,955.67
2018-07-30T06:20:42.351Z,955.69
2018-07-30T06:21:42.349Z,955.67
2018-07-30T06:22:42.350Z,955.68
2018-07-30T06:23:42.350Z,955.73
2018-07-30T06:24:42.351Z,955.7
2018-07-30T06:25:42.351Z,955.74
2018-07-30T06:26:42.353Z,955.72
2018-07-30T06:27:42.352Z,955.76
2018-07-30T06:28:42.352Z,955.74
2018-07-30T06:29:42.353Z,955.75
2018-07-30T06:30:42.354Z,955.72
2018-07-30T06:31:42.357Z,955.73
2018-07-30T06:32:42.355Z,955.74
2018-07-30T06:33:42.355Z,955.75
2018-07-30T06:34:42.357Z,955.71
2018-07-30T06:35:42.357Z,955.77
2018-07-30T06:36:42.358Z,955.73
2018-07-30T06:37:42.359Z,955.72
2018-07-30T06:38:42.360Z,955.75
2018-07-30T06:39:42.363Z,955.73
2018-07-30T06:40:42.362Z,955.77
2018-07-30T06:41:42.363Z,955.76
2018-07-30T06:42:42.365Z,955.8
2018-07-30T06:43:42.365Z,955.81
2018-07-30T06:44:42.367Z,955.8
2018-07-30T06:45:42.369Z,955.83
2018-07-30T06:46:42.369Z,955.83
2018-07-30T06:47:42.372Z,955.88
2018-07-30T06:48:42.374Z,955.9
2018-07-30T06:49:42.374Z,955.87
2018-07-30T06:50:42.375Z,955.87
2018-07-30T06:51:42.377Z,955.92
2018-07-30T06:52:42.379Z,955.94
2018-07-30T06:53:42.381Z,955.92
2018-07-30T06:54:42.385Z,955.92
2018-07-30T06:55:42.385Z,955.94
2018-07-30T06:56:42.388Z,955.93
2018-07-30T06:57:42.392Z,955.99
2018-07-30T06:58:42.394Z,956.02
2018-07-30T06:59:42.397Z,955.99
2018-07-30T07:00:42.404Z,955.97
2018-07-30T07:01:42.403Z,956
2018-07-30T07:02:42.409Z,956
2018-07-30T07:03:42.413Z,956.01
2018-07-30T07:04:42.419Z,955.99
2018-07-30T07:05:42.422Z,956.01
2018-07-30T07:06:42.428Z,956.06
2018-07-30T07:07:42.435Z,956.04
2018-07-30T07:08:42.439Z,956.05
2018-07-30T07:09:42.445Z,956.03
2018-07-30T07:10:42.452Z,956.07
2018-07-30T07:11:42.459Z,956.04
2018-07-30T07:12:42.465Z,956.06
2018-07-30T07:13:42.476Z,956.07
2018-07-30T07:14:42.479Z,956.09
2018-07-30T07:15:42.487Z,956.09
2018-07-30T07:16:42.588Z,956.09
2018-07-30T07:17:42.508Z,956.08
2018-07-30T07:18:42.510Z,956.11
2018-07-30T07:19:42.517Z,956.08
2018-07-30T07:20:42.540Z,956.06
2018-07-30T07:21:42.643Z,956.1
2018-07-30T07:22:42.545Z,956.11
2018-07-30T07:23:42.552Z,956.07
2018-07-30T07:24:42.561Z,956.09
2018-07-30T07:25:42.570Z,956.09
2018-07-30T07:26:42.580Z,956.1
2018-07-30T07:27:42.590Z,956.13
2018-07-30T07:28:42.599Z,956.09
2018-07-30T07:29:42.610Z,956.12
2018-07-30T07:30:42.623Z,956.15
2018-07-30T07:31:42.628Z,956.17
2018-07-30T07:32:42.638Z,956.21
2018-07-30T07:33:42.647Z,956.18
2018-07-30T07:34:42.657Z,956.29
2018-07-30T07:35:42.668Z,956.39
2018-07-30T07:36:42.679Z,956.38
2018-07-30T07:37:42.687Z,956.29
2018-07-30T07:38:42.699Z,956.28
2018-07-30T07:39:42.710Z,956.29
2018-07-30T07:40:42.720Z,956.29
2018-07-30T07:41:42.729Z,956.28
2018-07-30T07:42:42.742Z,956.32
2018-07-30T07:43:42.754Z,956.35
2018-07-30T07:44:42.764Z,956.38
2018-07-30T07:45:42.773Z,956.51
2018-07-30T07:46:42.784Z,956.56
2018-07-30T07:47:42.795Z,956.57
2018-07-30T07:48:42.807Z,956.72
2018-07-30T07:49:42.818Z,956.79
2018-07-30T07:50:42.880Z,956.84
2018-07-30T07:51:42.846Z,956.9
2018-07-30T07:52:42.852Z,956.92
2018-07-30T07:53:42.863Z,956.79
2018-07-30T07:54:42.876Z,956.65
2018-07-30T07:55:42.887Z,956.32
2018-07-30T07:56:42.897Z,956.11
2018-07-30T07:57:42.910Z,956.08
2018-07-30T07:58:42.920Z,956.11
2018-07-30T07:59:42.932Z,956.08
2018-07-30T08:00:42.942Z,956.08
2018-07-30T08:01:42.955Z,956.12
2018-07-30T08:02:42.964Z,956.15
2018-07-30T08:03:42.976Z,956.13
2018-07-30T08:04:42.986Z,956.11
2018-07-30T08:05:42.997Z,956.14
2018-07-30T08:06:43.007Z,956.14
2018-07-30T08:07:43.017Z,956.1
2018-07-30T08:08:43.027Z,956.13
2018-07-30T08:09:43.045Z,956.15
2018-07-30T08:10:43.048Z,956.14
2018-07-30T08:11:43.061Z,956.16
2018-07-30T08:12:43.068Z,956.12
2018-07-30T08:13:43.081Z,956.13
2018-07-30T08:14:43.089Z,956.13
2018-07-30T08:15:43.098Z,956.11
2018-07-30T08:16:43.109Z,956.1
2018-07-30T08:17:43.118Z,956.09
2018-07-30T08:18:43.127Z,956.06
2018-07-30T08:19:43.138Z,956.1
2018-07-30T08:20:43.148Z,956.07
2018-07-30T08:21:43.155Z,956.08
2018-07-30T08:22:43.165Z,956.1
2018-07-30T08:23:43.178Z,956.1
2018-07-30T08:24:43.181Z,956.14
2018-07-30T08:25:43.189Z,956.13
2018-07-30T08:26:43.198Z,956.15
2018-07-30T08:27:43.206Z,956.13
2018-07-30T08:28:43.216Z,956.14
2018-07-30T08:29:43.224Z,956.11
2018-07-30T08:30:43.232Z,956.12
2018-07-30T08:31:43.240Z,956.1
2018-07-30T08:32:43.248Z,956.12
2018-07-30T08:33:43.257Z,956.13
2018-07-30T08:34:43.268Z,956.09
2018-07-30T08:35:43.272Z,956.11
2018-07-30T08:36:43.279Z,956.09
2018-07-30T08:37:43.288Z,956.1
2018-07-30T08:38:43.295Z,956.1
2018-07-30T08:39:43.304Z,956.05
2018-07-30T08:40:43.312Z,956.04
2018-07-30T08:41:43.327Z,956.05
2018-07-30T08:42:43.327Z,956.05
2018-07-30T08:43:43.334Z,956.04
2018-07-30T08:44:43.342Z,956.05
2018-07-30T08:45:43.350Z,956.02
2018-07-30T08:46:43.360Z,956.03
2018-07-30T08:47:43.366Z,956.03
2018-07-30T08:48:43.410Z,956.06
2018-07-30T08:49:43.384Z,956.12
2018-07-30T08:50:43.388Z,956.13
2018-07-30T08:51:43.394Z,956.09
2018-07-30T08:52:43.401Z,956.09
2018-07-30T08:53:43.410Z,956.14
2018-07-30T08:54:43.416Z,956.08
2018-07-30T08:55:43.424Z,956.09
2018-07-30T08:56:43.431Z,956.15
2018-07-30T08:57:43.438Z,956.11
2018-07-30T08:58:43.445Z,956.09
2018-07-30T08:59:43.452Z,956.14
2018-07-30T09:00:43.459Z,956.07
2018-07-30T09:01:43.467Z,956.04
2018-07-30T09:02:43.474Z,956.1
2018-07-30T09:03:43.482Z,956.05
2018-07-30T09:04:43.488Z,956.05
2018-07-30T09:05:43.499Z,956.02
2018-07-30T09:06:43.503Z,956.06
2018-07-30T09:07:43.510Z,956
2018-07-30T09:08:43.519Z,956.06
2018-07-30T09:09:43.526Z,956.02
2018-07-30T09:10:43.531Z,956.02
2018-07-30T09:11:43.539Z,956.04
2018-07-30T09:12:43.570Z,956.02
2018-07-30T09:13:43.557Z,956.03
2018-07-30T09:14:43.562Z,956.05
2018-07-30T09:15:43.568Z,956.05
2018-07-30T09:16:43.575Z,956.03
2018-07-30T09:17:43.586Z,956.08
2018-07-30T09:18:43.593Z,956.11
2018-07-30T09:19:43.597Z,956.07
2018-07-30T09:20:43.609Z,956.11
2018-07-30T09:21:43.612Z,956.12
2018-07-30T09:22:43.620Z,956.11
2018-07-30T09:23:43.626Z,956.13
2018-07-30T09:24:43.633Z,956.06
2018-07-30T09:25:43.641Z,956.07
2018-07-30T09:26:43.650Z,956.13
2018-07-30T09:27:43.656Z,956.05
2018-07-30T09:28:43.665Z,956.03
2018-07-30T09:29:43.670Z,956.01
2018-07-30T09:30:43.679Z,956.04
2018-07-30T09:31:43.685Z,956.01
2018-07-30T09:32:43.729Z,956.02
2018-07-30T09:33:43.701Z,956.04
2018-07-30T09:34:43.708Z,956.03
2018-07-30T09:35:43.715Z,956.02
2018-07-30T09:36:43.723Z,956.01
2018-07-30T09:37:43.730Z,956.03
2018-07-30T09:38:43.756Z,956.03
2018-07-30T09:39:43.746Z,956.05
2018-07-30T09:40:43.753Z,956.04
2018-07-30T09:41:43.761Z,956.07
2018-07-30T09:42:43.767Z,956.01
2018-07-30T09:43:43.775Z,956.03
2018-07-30T09:44:43.791Z,955.98
2018-07-30T09:45:43.790Z,956.02
2018-07-30T09:46:43.797Z,956.02
2018-07-30T09:47:43.805Z,956.03
2018-07-30T09:48:43.813Z,956.04
2018-07-30T09:49:43.821Z,956
2018-07-30T09:50:43.830Z,956.04
2018-07-30T09:51:43.835Z,956.04
2018-07-30T09:52:43.843Z,956.04
2018-07-30T09:53:43.849Z,956.05
2018-07-30T09:54:43.857Z,956.05
2018-07-30T09:55:43.866Z,956.03
2018-07-30T09:56:43.872Z,956.04
2018-07-30T09:57:43.880Z,956.02
2018-07-30T09:58:43.887Z,956.02
2018-07-30T09:59:43.894Z,956.05
2018-07-30T10:00:43.902Z,956.06
2018-07-30T10:01:43.910Z,956.03
2018-07-30T10:02:43.919Z,956.04
2018-07-30T10:03:43.925Z,956.02
2018-07-30T10:04:43.932Z,956.02
2018-07-30T10:05:43.941Z,956.04
2018-07-30T10:06:43.948Z,956.01
2018-07-30T10:07:43.955Z,956.02
2018-07-30T10:08:43.962Z,956.04
2018-07-30T10:09:43.971Z,955.98
2018-07-30T10:10:43.978Z,955.99
2018-07-30T10:11:44.040Z,956
2018-07-30T10:12:43.992Z,956.01
2018-07-30T10:13:44.001Z,956.01
2018-07-30T10:14:44.009Z,956.01
2018-07-30T10:15:44.015Z,956.04
2018-07-30T10:16:44.034Z,956.02
2018-07-30T10:17:44.137Z,955.99
2018-07-30T10:18:44.065Z,956.06
2018-07-30T10:19:44.045Z,956.04
2018-07-30T10:20:44.053Z,956.01
2018-07-30T10:21:44.065Z,956.01
2018-07-30T10:22:44.067Z,955.98
2018-07-30T10:23:44.095Z,955.99
2018-07-30T10:24:44.082Z,956
2018-07-30T10:25:44.090Z,955.93
2018-07-30T10:26:44.098Z,955.9
2018-07-30T10:27:44.104Z,955.92
2018-07-30T10:28:44.117Z,955.89
2018-07-30T10:29:44.118Z,955.85
2018-07-30T10:30:44.175Z,955.89
2018-07-30T10:31:44.132Z,955.89
2018-07-30T10:32:44.140Z,955.92
2018-07-30T10:33:44.147Z,955.9
2018-07-30T10:34:44.156Z,955.89
2018-07-30T10:35:44.164Z,955.85
2018-07-30T10:36:44.170Z,955.9
2018-07-30T10:37:44.178Z,955.89
2018-07-30T10:38:44.185Z,955.85
2018-07-30T10:39:44.208Z,955.82
2018-07-30T10:40:44.202Z,955.85
2018-07-30T10:41:44.206Z,955.85
2018-07-30T10:42:44.213Z,955.83
2018-07-30T10:43:44.220Z,955.87
2018-07-30T10:44:44.228Z,955.85
2018-07-30T10:45:44.235Z,955.83
2018-07-30T10:46:44.242Z,955.84
2018-07-30T10:47:44.248Z,955.84
2018-07-30T10:48:44.256Z,955.83
2018-07-30T10:49:44.263Z,955.84
2018-07-30T10:50:44.271Z,955.82
2018-07-30T10:51:44.285Z,955.83
2018-07-30T10:52:44.285Z,955.86
2018-07-30T10:53:44.322Z,955.84
2018-07-30T10:54:44.299Z,955.82
2018-07-30T10:55:44.307Z,955.82
2018-07-30T10:56:44.313Z,955.82
2018-07-30T10:57:44.321Z,955.83
2018-07-30T10:58:44.327Z,955.87
2018-07-30T10:59:44.336Z,955.83
2018-07-30T11:00:44.342Z,955.81
2018-07-30T11:01:44.351Z,955.82
2018-07-30T11:02:44.357Z,955.81
2018-07-30T11:03:44.367Z,955.82
2018-07-30T11:04:44.371Z,955.8
2018-07-30T11:05:44.379Z,955.79
2018-07-30T11:06:44.386Z,955.8
2018-07-30T11:07:44.433Z,955.8
2018-07-30T11:08:44.399Z,955.8
2018-07-30T11:09:44.461Z,955.8
2018-07-30T11:10:44.413Z,955.82
2018-07-30T11:11:44.419Z,955.85
2018-07-30T11:12:44.426Z,955.82
2018-07-30T11:13:44.433Z,955.82
2018-07-30T11:14:44.478Z,955.83
2018-07-30T11:15:44.448Z,955.83
2018-07-30T11:16:44.459Z,955.8
2018-07-30T11:17:44.460Z,955.83
2018-07-30T11:18:44.467Z,955.8
2018-07-30T11:19:44.475Z,955.8
2018-07-30T11:20:44.482Z,955.79
2018-07-30T11:21:44.686Z,955.84
2018-07-30T11:22:44.496Z,955.78
2018-07-30T11:23:44.503Z,955.82
2018-07-30T11:24:44.509Z,955.84
2018-07-30T11:25:44.517Z,955.8
2018-07-30T11:26:44.526Z,955.86
2018-07-30T11:27:44.531Z,955.81
2018-07-30T11:28:44.538Z,955.79
2018-07-30T11:29:44.545Z,955.82
2018-07-30T11:30:44.552Z,955.82
2018-07-30T11:31:44.559Z,955.79
2018-07-30T11:32:44.565Z,955.81
2018-07-30T11:33:44.573Z,955.82
2018-07-30T11:34:44.580Z,955.81
2018-07-30T11:35:44.587Z,955.82
2018-07-30T11:36:44.594Z,955.85
2018-07-30T11:37:44.600Z,955.84
2018-07-30T11:38:44.608Z,955.84
2018-07-30T11:39:44.616Z,955.82
2018-07-30T11:40:44.622Z,955.86
2018-07-30T11:41:44.633Z,955.85
2018-07-30T11:42:44.638Z,955.86
2018-07-30T11:43:44.695Z,955.91
2018-07-30T11:44:44.652Z,955.89
2018-07-30T11:45:44.659Z,955.85
2018-07-30T11:46:44.665Z,955.87
2018-07-30T11:47:44.673Z,955.89
2018-07-30T11:48:44.759Z,955.88
2018-07-30T11:49:44.689Z,955.92
2018-07-30T11:50:44.695Z,955.9
2018-07-30T11:51:44.707Z,955.86
2018-07-30T11:52:44.724Z,955.9
2018-07-30T11:53:44.717Z,955.89
2018-07-30T11:54:44.724Z,955.87
2018-07-30T11:55:44.733Z,955.84
2018-07-30T11:56:44.740Z,955.83
2018-07-30T11:57:44.746Z,955.79
2018-07-30T11:58:44.755Z,955.82
2018-07-30T11:59:44.762Z,955.78
2018-07-30T12:00:44.770Z,955.77
2018-07-30T12:01:44.792Z,955.78
2018-07-30T12:02:44.786Z,955.76
2018-07-30T12:03:44.793Z,955.74
2018-07-30T12:04:44.800Z,955.76
2018-07-30T12:05:44.807Z,955.74
2018-07-30T12:06:44.816Z,955.75
2018-07-30T12:07:44.823Z,955.71
2018-07-30T12:08:44.854Z,955.75
2018-07-30T12:09:44.838Z,955.71
2018-07-30T12:10:44.846Z,955.77
2018-07-30T12:11:44.853Z,955.72
2018-07-30T12:12:44.865Z,955.74
2018-07-30T12:13:44.870Z,955.76
2018-07-30T12:14:44.884Z,955.76
2018-07-30T12:15:44.887Z,955.79
2018-07-30T12:16:44.891Z,955.77
2018-07-30T12:17:44.899Z,955.74
2018-07-30T12:18:44.907Z,955.79
2018-07-30T12:19:44.913Z,955.78
2018-07-30T12:20:44.975Z,955.78
2018-07-30T12:21:44.934Z,955.73
2018-07-30T12:22:44.935Z,955.76
2018-07-30T12:23:44.944Z,955.75
2018-07-30T12:24:44.950Z,955.68
2018-07-30T12:25:44.958Z,955.68
2018-07-30T12:26:44.988Z,955.71
2018-07-30T12:27:44.983Z,955.73
2018-07-30T12:28:44.981Z,955.7
2018-07-30T12:29:44.987Z,955.66
2018-07-30T12:30:44.994Z,955.65
2018-07-30T12:31:45.002Z,955.66